sensor_id;sensor_type;location;lat;lon;timestamp;pressure;altitude;pressure_sealevel;temperature
70831;BMP180;58451;51.550;7.208;2023-02-19T00:01:19;100917.00;;;9.60
70831;BMP180;58451;51.550;7.208;2023-02-19T00:02:51;100921.00;;;9.60
70831;BMP180;58451;51.550;7.208;2023-02-19T00:04:23;100915.40;;;9.60
70831;BMP180;58451;51.550;7.208;2023-02-19T00:05:55;100922.20;;;9.60
70831;BMP180;58451;51.550;7.208;2023-02-19T00:07:27;100919.20;;;9.62
70831;BMP180;58451;51.550;7.208;2023-02-19T00:08:59;100919.20;;;9.64
70831;BMP180;58451;51.550;7.208;2023-02-19T00:10:31;100918.80;;;9.60
70831;BMP180;58451;51.550;7.208;2023-02-19T00:12:03;100917.80;;;9.60
70831;BMP180;58451;51.550;7.208;2023-02-19T00:13:40;100923.40;;;9.66
70831;BMP180;58451;51.550;7.208;2023-02-19T00:15:12;100930.80;;;9.70
70831;BMP180;58451;51.550;7.208;2023-02-19T00:16:45;100928.60;;;9.70
70831;BMP180;58451;51.550;7.208;2023-02-19T00:18:16;100927.00;;;9.70
70831;BMP180;58451;51.550;7.208;2023-02-19T00:19:48;100924.20;;;9.68
70831;BMP180;58451;51.550;7.208;2023-02-19T00:21:21;100921.60;;;9.68
70831;BMP180;58451;51.550;7.208;2023-02-19T00:22:52;100923.00;;;9.70
70831;BMP180;58451;51.550;7.208;2023-02-19T00:24:24;100921.80;;;9.70
70831;BMP180;58451;51.550;7.208;2023-02-19T00:25:56;100926.40;;;9.70
70831;BMP180;58451;51.550;7.208;2023-02-19T00:27:48;100913.20;;;9.70
70831;BMP180;58451;51.550;7.208;2023-02-19T00:29:20;100914.80;;;9.70
70831;BMP180;58451;51.550;7.208;2023-02-19T00:30:53;100921.40;;;9.70
70831;BMP180;58451;51.550;7.208;2023-02-19T00:32:25;100916.60;;;9.70
70831;BMP180;58451;51.550;7.208;2023-02-19T00:34:01;100914.60;;;9.70
70831;BMP180;58451;51.550;7.208;2023-02-19T00:35:34;100912.80;;;9.70
70831;BMP180;58451;51.550;7.208;2023-02-19T00:37:06;100918.40;;;9.70
70831;BMP180;58451;51.550;7.208;2023-02-19T00:38:40;100914.20;;;9.70
70831;BMP180;58451;51.550;7.208;2023-02-19T00:40:12;100909.40;;;9.70
70831;BMP180;58451;51.550;7.208;2023-02-19T00:41:44;100901.20;;;9.70
70831;BMP180;58451;51.550;7.208;2023-02-19T00:43:17;100896.00;;;9.70
70831;BMP180;58451;51.550;7.208;2023-02-19T00:44:48;100904.20;;;9.70
70831;BMP180;58451;51.550;7.208;2023-02-19T00:46:34;100900.80;;;9.70
70831;BMP180;58451;51.550;7.208;2023-02-19T00:48:06;100899.00;;;9.70
70831;BMP180;58451;51.550;7.208;2023-02-19T00:49:38;100896.40;;;9.70
70831;BMP180;58451;51.550;7.208;2023-02-19T00:51:10;100890.80;;;9.70
70831;BMP180;58451;51.550;7.208;2023-02-19T00:52:42;100897.20;;;9.70
70831;BMP180;58451;51.550;7.208;2023-02-19T00:54:15;100902.20;;;9.70
70831;BMP180;58451;51.550;7.208;2023-02-19T00:55:47;100896.80;;;9.70
70831;BMP180;58451;51.550;7.208;2023-02-19T00:57:19;100894.80;;;9.70
70831;BMP180;58451;51.550;7.208;2023-02-19T00:58:51;100899.20;;;9.70
70831;BMP180;58451;51.550;7.208;2023-02-19T01:00:23;100893.20;;;9.70
70831;BMP180;58451;51.550;7.208;2023-02-19T01:01:55;100893.20;;;9.70
70831;BMP180;58451;51.550;7.208;2023-02-19T01:03:27;100894.40;;;9.64
70831;BMP180;58451;51.550;7.208;2023-02-19T01:04:59;100890.00;;;9.60
70831;BMP180;58451;51.550;7.208;2023-02-19T01:06:31;100895.40;;;9.60
70831;BMP180;58451;51.550;7.208;2023-02-19T01:08:03;100899.40;;;9.60
70831;BMP180;58451;51.550;7.208;2023-02-19T01:09:35;100896.00;;;9.60
70831;BMP180;58451;51.550;7.208;2023-02-19T01:11:08;100889.40;;;9.60
70831;BMP180;58451;51.550;7.208;2023-02-19T01:12:41;100894.00;;;9.60
70831;BMP180;58451;51.550;7.208;2023-02-19T01:14:13;100891.00;;;9.60
70831;BMP180;58451;51.550;7.208;2023-02-19T01:15:45;100892.40;;;9.60
70831;BMP180;58451;51.550;7.208;2023-02-19T01:17:16;100897.40;;;9.60
70831;BMP180;58451;51.550;7.208;2023-02-19T01:18:49;100894.00;;;9.60
70831;BMP180;58451;51.550;7.208;2023-02-19T01:20:21;100896.60;;;9.60
70831;BMP180;58451;51.550;7.208;2023-02-19T01:21:53;100896.20;;;9.60
70831;BMP180;58451;51.550;7.208;2023-02-19T01:23:25;100895.00;;;9.60
70831;BMP180;58451;51.550;7.208;2023-02-19T01:24:57;100899.40;;;9.60
70831;BMP180;58451;51.550;7.208;2023-02-19T01:26:31;100896.60;;;9.60
70831;BMP180;58451;51.550;7.208;2023-02-19T01:28:03;100895.00;;;9.60
70831;BMP180;58451;51.550;7.208;2023-02-19T01:29:35;100892.00;;;9.60
70831;BMP180;58451;51.550;7.208;2023-02-19T01:31:11;100892.20;;;9.60
70831;BMP180;58451;51.550;7.208;2023-02-19T01:32:44;100886.60;;;9.60
70831;BMP180;58451;51.550;7.208;2023-02-19T01:34:16;100885.80;;;9.60
70831;BMP180;58451;51.550;7.208;2023-02-19T01:35:48;100881.20;;;9.60
70831;BMP180;58451;51.550;7.208;2023-02-19T01:37:20;100885.20;;;9.60
70831;BMP180;58451;51.550;7.208;2023-02-19T01:38:52;100883.60;;;9.60
70831;BMP180;58451;51.550;7.208;2023-02-19T01:40:24;100882.80;;;9.60
70831;BMP180;58451;51.550;7.208;2023-02-19T01:41:56;100887.20;;;9.60
70831;BMP180;58451;51.550;7.208;2023-02-19T01:43:33;100891.40;;;9.60
70831;BMP180;58451;51.550;7.208;2023-02-19T01:45:37;100887.20;;;9.60
70831;BMP180;58451;51.550;7.208;2023-02-19T01:47:10;100894.00;;;9.60
70831;BMP180;58451;51.550;7.208;2023-02-19T01:48:42;100884.60;;;9.60
70831;BMP180;58451;51.550;7.208;2023-02-19T01:50:15;100882.00;;;9.58
70831;BMP180;58451;51.550;7.208;2023-02-19T01:51:52;100885.00;;;9.50
70831;BMP180;58451;51.550;7.208;2023-02-19T01:53:29;100882.40;;;9.50
70831;BMP180;58451;51.550;7.208;2023-02-19T01:55:10;100885.80;;;9.50
70831;BMP180;58451;51.550;7.208;2023-02-19T01:56:45;100891.40;;;9.50
70831;BMP180;58451;51.550;7.208;2023-02-19T01:58:18;100885.40;;;9.50
70831;BMP180;58451;51.550;7.208;2023-02-19T01:59:58;100893.40;;;9.50
70831;BMP180;58451;51.550;7.208;2023-02-19T02:01:31;100890.60;;;9.50
70831;BMP180;58451;51.550;7.208;2023-02-19T02:03:03;100893.00;;;9.50
70831;BMP180;58451;51.550;7.208;2023-02-19T02:04:35;100899.40;;;9.50
70831;BMP180;58451;51.550;7.208;2023-02-19T02:06:17;100895.20;;;9.50
70831;BMP180;58451;51.550;7.208;2023-02-19T02:07:51;100907.20;;;9.50
70831;BMP180;58451;51.550;7.208;2023-02-19T02:09:42;100904.00;;;9.50
70831;BMP180;58451;51.550;7.208;2023-02-19T02:11:50;100898.00;;;9.48
70831;BMP180;58451;51.550;7.208;2023-02-19T02:13:22;100900.00;;;9.46
70831;BMP180;58451;51.550;7.208;2023-02-19T02:14:54;100896.00;;;9.40
70831;BMP180;58451;51.550;7.208;2023-02-19T02:18:55;100899.40;;;9.40
70831;BMP180;58451;51.550;7.208;2023-02-19T02:30:55;100907.60;;;9.40
70831;BMP180;58451;51.550;7.208;2023-02-19T02:32:44;100906.00;;;9.40
70831;BMP180;58451;51.550;7.208;2023-02-19T02:34:33;100900.40;;;9.36
70831;BMP180;58451;51.550;7.208;2023-02-19T02:36:17;100897.00;;;9.32
70831;BMP180;58451;51.550;7.208;2023-02-19T02:37:54;100896.20;;;9.32
70831;BMP180;58451;51.550;7.208;2023-02-19T02:39:30;100900.20;;;9.32
70831;BMP180;58451;51.550;7.208;2023-02-19T02:41:04;100900.60;;;9.30
70831;BMP180;58451;51.550;7.208;2023-02-19T02:42:39;100902.00;;;9.30
70831;BMP180;58451;51.550;7.208;2023-02-19T02:44:13;100909.00;;;9.30
70831;BMP180;58451;51.550;7.208;2023-02-19T02:45:45;100904.40;;;9.32
70831;BMP180;58451;51.550;7.208;2023-02-19T02:47:55;100905.00;;;9.30
70831;BMP180;58451;51.550;7.208;2023-02-19T02:49:28;100902.00;;;9.30
70831;BMP180;58451;51.550;7.208;2023-02-19T02:51:16;100900.60;;;9.30
70831;BMP180;58451;51.550;7.208;2023-02-19T02:53:01;100897.00;;;9.30
70831;BMP180;58451;51.550;7.208;2023-02-19T02:54:52;100904.60;;;9.30
70831;BMP180;58451;51.550;7.208;2023-02-19T02:56:34;100905.40;;;9.30
70831;BMP180;58451;51.550;7.208;2023-02-19T02:58:07;100901.00;;;9.30
70831;BMP180;58451;51.550;7.208;2023-02-19T02:59:42;100905.00;;;9.30
70831;BMP180;58451;51.550;7.208;2023-02-19T03:01:31;100905.60;;;9.30
70831;BMP180;58451;51.550;7.208;2023-02-19T03:03:24;100909.00;;;9.30
70831;BMP180;58451;51.550;7.208;2023-02-19T03:05:19;100902.40;;;9.30
70831;BMP180;58451;51.550;7.208;2023-02-19T03:07:11;100910.00;;;9.30
70831;BMP180;58451;51.550;7.208;2023-02-19T03:08:53;100909.80;;;9.28
70831;BMP180;58451;51.550;7.208;2023-02-19T03:10:50;100912.00;;;9.30
70831;BMP180;58451;51.550;7.208;2023-02-19T03:12:26;100904.40;;;9.30
70831;BMP180;58451;51.550;7.208;2023-02-19T03:14:32;100909.20;;;9.30
70831;BMP180;58451;51.550;7.208;2023-02-19T03:16:30;100907.60;;;9.26
70831;BMP180;58451;51.550;7.208;2023-02-19T03:18:25;100917.00;;;9.30
70831;BMP180;58451;51.550;7.208;2023-02-19T03:20:21;100912.60;;;9.30
70831;BMP180;58451;51.550;7.208;2023-02-19T03:22:13;100910.80;;;9.30
70831;BMP180;58451;51.550;7.208;2023-02-19T03:23:47;100916.00;;;9.30
70831;BMP180;58451;51.550;7.208;2023-02-19T03:25:39;100918.40;;;9.30
70831;BMP180;58451;51.550;7.208;2023-02-19T03:27:41;100922.00;;;9.30
70831;BMP180;58451;51.550;7.208;2023-02-19T03:29:14;100927.40;;;9.30
70831;BMP180;58451;51.550;7.208;2023-02-19T03:31:03;100927.80;;;9.30
70831;BMP180;58451;51.550;7.208;2023-02-19T03:34:20;100922.00;;;9.24
70831;BMP180;58451;51.550;7.208;2023-02-19T03:36:01;100928.80;;;9.20
70831;BMP180;58451;51.550;7.208;2023-02-19T03:38:12;100931.00;;;9.20
70831;BMP180;58451;51.550;7.208;2023-02-19T03:39:51;100937.40;;;9.10
70831;BMP180;58451;51.550;7.208;2023-02-19T03:41:39;100942.60;;;9.10
70831;BMP180;58451;51.550;7.208;2023-02-19T03:43:20;100944.40;;;9.10
70831;BMP180;58451;51.550;7.208;2023-02-19T03:48:59;100960.40;;;9.10
70831;BMP180;58451;51.550;7.208;2023-02-19T03:50:46;100955.20;;;9.18
70831;BMP180;58451;51.550;7.208;2023-02-19T03:56:15;100961.60;;;9.10
70831;BMP180;58451;51.550;7.208;2023-02-19T04:00:31;100964.00;;;9.10
70831;BMP180;58451;51.550;7.208;2023-02-19T04:02:22;100968.20;;;9.10
70831;BMP180;58451;51.550;7.208;2023-02-19T04:04:05;100967.60;;;9.10
70831;BMP180;58451;51.550;7.208;2023-02-19T04:05:46;100968.80;;;9.04
70831;BMP180;58451;51.550;7.208;2023-02-19T04:07:20;100968.60;;;9.00
70831;BMP180;58451;51.550;7.208;2023-02-19T04:08:57;100967.80;;;9.00
70831;BMP180;58451;51.550;7.208;2023-02-19T04:10:31;100972.80;;;9.00
70831;BMP180;58451;51.550;7.208;2023-02-19T04:12:05;100972.60;;;9.00
70831;BMP180;58451;51.550;7.208;2023-02-19T04:13:45;100972.40;;;8.94
70831;BMP180;58451;51.550;7.208;2023-02-19T04:15:25;100982.40;;;8.90
70831;BMP180;58451;51.550;7.208;2023-02-19T04:17:06;100981.40;;;8.90
70831;BMP180;58451;51.550;7.208;2023-02-19T04:18:43;100990.60;;;8.90
70831;BMP180;58451;51.550;7.208;2023-02-19T04:20:18;100991.40;;;8.90
70831;BMP180;58451;51.550;7.208;2023-02-19T04:21:53;100994.20;;;8.90
70831;BMP180;58451;51.550;7.208;2023-02-19T04:23:32;100995.20;;;8.90
70831;BMP180;58451;51.550;7.208;2023-02-19T04:25:07;100996.20;;;8.90
70831;BMP180;58451;51.550;7.208;2023-02-19T04:26:40;101000.00;;;8.90
70831;BMP180;58451;51.550;7.208;2023-02-19T04:28:14;101003.80;;;8.90
70831;BMP180;58451;51.550;7.208;2023-02-19T04:29:47;101004.40;;;8.90
70831;BMP180;58451;51.550;7.208;2023-02-19T04:31:19;101000.40;;;8.90
70831;BMP180;58451;51.550;7.208;2023-02-19T04:32:50;101004.80;;;8.90
70831;BMP180;58451;51.550;7.208;2023-02-19T04:34:22;100999.20;;;8.90
70831;BMP180;58451;51.550;7.208;2023-02-19T04:35:54;101004.80;;;8.90
70831;BMP180;58451;51.550;7.208;2023-02-19T04:37:26;101006.00;;;8.90
70831;BMP180;58451;51.550;7.208;2023-02-19T04:38:58;101007.80;;;8.90
70831;BMP180;58451;51.550;7.208;2023-02-19T04:40:30;101013.80;;;8.90
70831;BMP180;58451;51.550;7.208;2023-02-19T04:42:02;101009.80;;;8.90
70831;BMP180;58451;51.550;7.208;2023-02-19T04:43:34;101019.40;;;8.90
70831;BMP180;58451;51.550;7.208;2023-02-19T04:45:06;101013.80;;;8.90
70831;BMP180;58451;51.550;7.208;2023-02-19T04:46:40;101023.60;;;8.90
70831;BMP180;58451;51.550;7.208;2023-02-19T04:48:13;101018.20;;;8.90
70831;BMP180;58451;51.550;7.208;2023-02-19T04:49:45;101016.80;;;8.90
70831;BMP180;58451;51.550;7.208;2023-02-19T04:51:18;101018.80;;;8.90
70831;BMP180;58451;51.550;7.208;2023-02-19T04:52:49;101022.40;;;8.90
70831;BMP180;58451;51.550;7.208;2023-02-19T04:54:24;101030.80;;;8.90
70831;BMP180;58451;51.550;7.208;2023-02-19T04:55:56;101029.00;;;8.90
70831;BMP180;58451;51.550;7.208;2023-02-19T04:57:27;101031.80;;;8.90
70831;BMP180;58451;51.550;7.208;2023-02-19T04:58:59;101027.60;;;8.90
70831;BMP180;58451;51.550;7.208;2023-02-19T05:00:31;101031.80;;;8.88
70831;BMP180;58451;51.550;7.208;2023-02-19T05:02:04;101031.60;;;8.80
70831;BMP180;58451;51.550;7.208;2023-02-19T05:03:36;101036.40;;;8.80
70831;BMP180;58451;51.550;7.208;2023-02-19T05:05:08;101030.80;;;8.80
70831;BMP180;58451;51.550;7.208;2023-02-19T05:06:40;101037.20;;;8.80
70831;BMP180;58451;51.550;7.208;2023-02-19T05:08:11;101035.60;;;8.80
70831;BMP180;58451;51.550;7.208;2023-02-19T05:09:43;101036.40;;;8.80
70831;BMP180;58451;51.550;7.208;2023-02-19T05:11:15;101040.20;;;8.80
70831;BMP180;58451;51.550;7.208;2023-02-19T05:12:47;101037.00;;;8.80
70831;BMP180;58451;51.550;7.208;2023-02-19T05:14:18;101042.80;;;8.80
70831;BMP180;58451;51.550;7.208;2023-02-19T05:16:12;101048.80;;;8.80
70831;BMP180;58451;51.550;7.208;2023-02-19T05:17:46;101042.80;;;8.80
70831;BMP180;58451;51.550;7.208;2023-02-19T05:19:18;101051.60;;;8.80
70831;BMP180;58451;51.550;7.208;2023-02-19T05:20:50;101055.40;;;8.80
70831;BMP180;58451;51.550;7.208;2023-02-19T05:22:23;101058.80;;;8.80
70831;BMP180;58451;51.550;7.208;2023-02-19T05:23:54;101056.00;;;8.80
70831;BMP180;58451;51.550;7.208;2023-02-19T05:25:26;101056.00;;;8.80
70831;BMP180;58451;51.550;7.208;2023-02-19T05:26:58;101057.80;;;8.80
70831;BMP180;58451;51.550;7.208;2023-02-19T05:28:30;101063.20;;;8.80
70831;BMP180;58451;51.550;7.208;2023-02-19T05:30:01;101066.00;;;8.80
70831;BMP180;58451;51.550;7.208;2023-02-19T05:31:33;101068.40;;;8.80
70831;BMP180;58451;51.550;7.208;2023-02-19T05:33:05;101069.00;;;8.80
70831;BMP180;58451;51.550;7.208;2023-02-19T05:34:37;101071.80;;;8.80
70831;BMP180;58451;51.550;7.208;2023-02-19T05:36:12;101068.80;;;8.76
70831;BMP180;58451;51.550;7.208;2023-02-19T05:37:44;101071.80;;;8.72
70831;BMP180;58451;51.550;7.208;2023-02-19T05:39:15;101076.60;;;8.70
70831;BMP180;58451;51.550;7.208;2023-02-19T05:40:47;101079.60;;;8.70
70831;BMP180;58451;51.550;7.208;2023-02-19T05:42:19;101077.80;;;8.70
70831;BMP180;58451;51.550;7.208;2023-02-19T05:43:52;101081.60;;;8.70
70831;BMP180;58451;51.550;7.208;2023-02-19T05:45:25;101086.20;;;8.70
70831;BMP180;58451;51.550;7.208;2023-02-19T05:46:56;101090.80;;;8.70
70831;BMP180;58451;51.550;7.208;2023-02-19T05:48:28;101086.60;;;8.70
70831;BMP180;58451;51.550;7.208;2023-02-19T05:50:00;101090.80;;;8.70
70831;BMP180;58451;51.550;7.208;2023-02-19T05:51:32;101093.20;;;8.70
70831;BMP180;58451;51.550;7.208;2023-02-19T05:53:04;101093.60;;;8.70
70831;BMP180;58451;51.550;7.208;2023-02-19T05:54:36;101092.00;;;8.70
70831;BMP180;58451;51.550;7.208;2023-02-19T05:56:39;101099.00;;;8.70
70831;BMP180;58451;51.550;7.208;2023-02-19T05:58:11;101102.60;;;8.70
70831;BMP180;58451;51.550;7.208;2023-02-19T05:59:43;101101.60;;;8.70
70831;BMP180;58451;51.550;7.208;2023-02-19T06:01:17;101096.80;;;8.70
70831;BMP180;58451;51.550;7.208;2023-02-19T06:02:50;101099.40;;;8.70
70831;BMP180;58451;51.550;7.208;2023-02-19T06:04:21;101094.00;;;8.70
70831;BMP180;58451;51.550;7.208;2023-02-19T06:05:54;101099.60;;;8.70
70831;BMP180;58451;51.550;7.208;2023-02-19T06:07:25;101103.20;;;8.70
70831;BMP180;58451;51.550;7.208;2023-02-19T06:08:57;101112.60;;;8.70
70831;BMP180;58451;51.550;7.208;2023-02-19T06:10:29;101110.00;;;8.70
70831;BMP180;58451;51.550;7.208;2023-02-19T06:12:00;101112.80;;;8.70
70831;BMP180;58451;51.550;7.208;2023-02-19T06:13:32;101111.60;;;8.70
70831;BMP180;58451;51.550;7.208;2023-02-19T06:15:05;101113.00;;;8.70
70831;BMP180;58451;51.550;7.208;2023-02-19T06:16:37;101112.60;;;8.70
70831;BMP180;58451;51.550;7.208;2023-02-19T06:18:09;101113.60;;;8.70
70831;BMP180;58451;51.550;7.208;2023-02-19T06:19:41;101116.80;;;8.70
70831;BMP180;58451;51.550;7.208;2023-02-19T06:21:15;101117.00;;;8.70
70831;BMP180;58451;51.550;7.208;2023-02-19T06:22:50;101121.00;;;8.70
70831;BMP180;58451;51.550;7.208;2023-02-19T06:24:22;101119.60;;;8.70
70831;BMP180;58451;51.550;7.208;2023-02-19T06:25:54;101118.60;;;8.70
70831;BMP180;58451;51.550;7.208;2023-02-19T06:27:26;101123.00;;;8.70
70831;BMP180;58451;51.550;7.208;2023-02-19T06:28:58;101125.40;;;8.70
70831;BMP180;58451;51.550;7.208;2023-02-19T06:30:30;101130.40;;;8.66
70831;BMP180;58451;51.550;7.208;2023-02-19T06:32:03;101128.60;;;8.66
70831;BMP180;58451;51.550;7.208;2023-02-19T06:33:36;101125.60;;;8.66
70831;BMP180;58451;51.550;7.208;2023-02-19T06:35:10;101130.60;;;8.68
70831;BMP180;58451;51.550;7.208;2023-02-19T06:36:42;101132.20;;;8.68
70831;BMP180;58451;51.550;7.208;2023-02-19T06:38:15;101130.40;;;8.68
70831;BMP180;58451;51.550;7.208;2023-02-19T06:39:46;101132.40;;;8.66
70831;BMP180;58451;51.550;7.208;2023-02-19T06:41:18;101133.80;;;8.70
70831;BMP180;58451;51.550;7.208;2023-02-19T06:42:50;101138.80;;;8.70
70831;BMP180;58451;51.550;7.208;2023-02-19T06:44:23;101139.60;;;8.70
70831;BMP180;58451;51.550;7.208;2023-02-19T06:45:58;101141.40;;;8.70
70831;BMP180;58451;51.550;7.208;2023-02-19T06:47:31;101146.60;;;8.70
70831;BMP180;58451;51.550;7.208;2023-02-19T06:49:04;101144.40;;;8.70
70831;BMP180;58451;51.550;7.208;2023-02-19T06:50:36;101146.40;;;8.70
70831;BMP180;58451;51.550;7.208;2023-02-19T06:52:08;101150.00;;;8.70
70831;BMP180;58451;51.550;7.208;2023-02-19T06:53:40;101151.80;;;8.70
70831;BMP180;58451;51.550;7.208;2023-02-19T06:55:12;101154.00;;;8.70
70831;BMP180;58451;51.550;7.208;2023-02-19T06:56:44;101159.80;;;8.70
70831;BMP180;58451;51.550;7.208;2023-02-19T06:58:17;101164.80;;;8.70
70831;BMP180;58451;51.550;7.208;2023-02-19T06:59:49;101168.60;;;8.70
70831;BMP180;58451;51.550;7.208;2023-02-19T07:01:22;101166.20;;;8.70
70831;BMP180;58451;51.550;7.208;2023-02-19T07:02:54;101169.20;;;8.70
70831;BMP180;58451;51.550;7.208;2023-02-19T07:04:27;101173.20;;;8.70
70831;BMP180;58451;51.550;7.208;2023-02-19T07:05:59;101176.80;;;8.70
70831;BMP180;58451;51.550;7.208;2023-02-19T07:07:31;101178.60;;;8.70
70831;BMP180;58451;51.550;7.208;2023-02-19T07:09:05;101184.40;;;8.70
70831;BMP180;58451;51.550;7.208;2023-02-19T07:10:37;101187.00;;;8.70
70831;BMP180;58451;51.550;7.208;2023-02-19T07:12:09;101189.60;;;8.70
70831;BMP180;58451;51.550;7.208;2023-02-19T07:13:41;101196.20;;;8.70
70831;BMP180;58451;51.550;7.208;2023-02-19T07:15:12;101201.20;;;8.70
70831;BMP180;58451;51.550;7.208;2023-02-19T07:16:44;101209.20;;;8.70
70831;BMP180;58451;51.550;7.208;2023-02-19T07:18:18;101201.00;;;8.70
70831;BMP180;58451;51.550;7.208;2023-02-19T07:19:49;101203.60;;;8.70
70831;BMP180;58451;51.550;7.208;2023-02-19T07:21:21;101211.60;;;8.70
70831;BMP180;58451;51.550;7.208;2023-02-19T07:22:56;101212.80;;;8.70
70831;BMP180;58451;51.550;7.208;2023-02-19T07:24:28;101212.40;;;8.70
70831;BMP180;58451;51.550;7.208;2023-02-19T07:26:00;101214.80;;;8.70
70831;BMP180;58451;51.550;7.208;2023-02-19T07:27:31;101219.60;;;8.70
70831;BMP180;58451;51.550;7.208;2023-02-19T07:29:03;101218.20;;;8.70
70831;BMP180;58451;51.550;7.208;2023-02-19T07:30:35;101217.60;;;8.70
70831;BMP180;58451;51.550;7.208;2023-02-19T07:32:07;101222.00;;;8.70
70831;BMP180;58451;51.550;7.208;2023-02-19T07:33:42;101229.00;;;8.70
70831;BMP180;58451;51.550;7.208;2023-02-19T07:35:14;101230.80;;;8.70
70831;BMP180;58451;51.550;7.208;2023-02-19T07:36:48;101234.00;;;8.70
70831;BMP180;58451;51.550;7.208;2023-02-19T07:38:22;101232.60;;;8.70
70831;BMP180;58451;51.550;7.208;2023-02-19T07:39:54;101237.60;;;8.70
70831;BMP180;58451;51.550;7.208;2023-02-19T07:41:26;101236.00;;;8.70
70831;BMP180;58451;51.550;7.208;2023-02-19T07:43:00;101239.40;;;8.70
70831;BMP180;58451;51.550;7.208;2023-02-19T07:44:32;101242.40;;;8.70
70831;BMP180;58451;51.550;7.208;2023-02-19T07:46:10;101247.60;;;8.70
70831;BMP180;58451;51.550;7.208;2023-02-19T07:47:42;101251.60;;;8.70
70831;BMP180;58451;51.550;7.208;2023-02-19T07:49:14;101250.40;;;8.70
70831;BMP180;58451;51.550;7.208;2023-02-19T07:50:53;101250.00;;;8.70
70831;BMP180;58451;51.550;7.208;2023-02-19T07:52:25;101254.60;;;8.70
70831;BMP180;58451;51.550;7.208;2023-02-19T07:53:57;101246.40;;;8.72
70831;BMP180;58451;51.550;7.208;2023-02-19T07:55:31;101251.80;;;8.70
70831;BMP180;58451;51.550;7.208;2023-02-19T07:57:03;101250.60;;;8.80
70831;BMP180;58451;51.550;7.208;2023-02-19T07:58:34;101251.60;;;8.78
70831;BMP180;58451;51.550;7.208;2023-02-19T08:00:06;101260.20;;;8.80
70831;BMP180;58451;51.550;7.208;2023-02-19T08:01:43;101259.60;;;8.80
70831;BMP180;58451;51.550;7.208;2023-02-19T08:03:34;101259.00;;;8.80
70831;BMP180;58451;51.550;7.208;2023-02-19T08:05:06;101262.00;;;8.80
70831;BMP180;58451;51.550;7.208;2023-02-19T08:06:38;101267.20;;;8.80
70831;BMP180;58451;51.550;7.208;2023-02-19T08:08:13;101274.20;;;8.80
70831;BMP180;58451;51.550;7.208;2023-02-19T08:09:45;101283.60;;;8.80
70831;BMP180;58451;51.550;7.208;2023-02-19T08:11:36;101284.00;;;8.80
70831;BMP180;58451;51.550;7.208;2023-02-19T08:13:29;101294.20;;;8.80
70831;BMP180;58451;51.550;7.208;2023-02-19T08:15:01;101300.20;;;8.80
70831;BMP180;58451;51.550;7.208;2023-02-19T08:16:33;101296.40;;;8.80
70831;BMP180;58451;51.550;7.208;2023-02-19T08:18:15;101298.40;;;8.90
70831;BMP180;58451;51.550;7.208;2023-02-19T08:19:48;101301.20;;;8.90
70831;BMP180;58451;51.550;7.208;2023-02-19T08:21:19;101298.20;;;8.90
70831;BMP180;58451;51.550;7.208;2023-02-19T08:22:51;101296.20;;;8.90
70831;BMP180;58451;51.550;7.208;2023-02-19T08:24:23;101294.40;;;8.90
70831;BMP180;58451;51.550;7.208;2023-02-19T08:26:00;101297.20;;;8.90
70831;BMP180;58451;51.550;7.208;2023-02-19T08:27:32;101300.40;;;8.90
70831;BMP180;58451;51.550;7.208;2023-02-19T08:29:05;101292.40;;;8.98
70831;BMP180;58451;51.550;7.208;2023-02-19T08:30:39;101296.20;;;9.00
70831;BMP180;58451;51.550;7.208;2023-02-19T08:32:11;101291.20;;;9.10
70831;BMP180;58451;51.550;7.208;2023-02-19T08:33:43;101293.80;;;9.10
70831;BMP180;58451;51.550;7.208;2023-02-19T08:35:14;101297.20;;;9.10
70831;BMP180;58451;51.550;7.208;2023-02-19T08:36:46;101300.60;;;9.14
70831;BMP180;58451;51.550;7.208;2023-02-19T08:38:18;101305.20;;;9.20
70831;BMP180;58451;51.550;7.208;2023-02-19T08:39:50;101307.80;;;9.20
70831;BMP180;58451;51.550;7.208;2023-02-19T08:41:21;101308.40;;;9.20
70831;BMP180;58451;51.550;7.208;2023-02-19T08:42:53;101308.20;;;9.20
70831;BMP180;58451;51.550;7.208;2023-02-19T08:44:25;101311.80;;;9.20
70831;BMP180;58451;51.550;7.208;2023-02-19T08:45:57;101307.00;;;9.20
70831;BMP180;58451;51.550;7.208;2023-02-19T08:47:28;101306.00;;;9.20
70831;BMP180;58451;51.550;7.208;2023-02-19T08:49:00;101309.40;;;9.26
70831;BMP180;58451;51.550;7.208;2023-02-19T08:50:33;101308.40;;;9.30
70831;BMP180;58451;51.550;7.208;2023-02-19T08:52:05;101310.20;;;9.30
70831;BMP180;58451;51.550;7.208;2023-02-19T08:53:39;101308.60;;;9.40
70831;BMP180;58451;51.550;7.208;2023-02-19T08:55:10;101304.40;;;9.50
70831;BMP180;58451;51.550;7.208;2023-02-19T08:56:42;101307.00;;;9.60
70831;BMP180;58451;51.550;7.208;2023-02-19T08:58:14;101310.20;;;9.70
70831;BMP180;58451;51.550;7.208;2023-02-19T08:59:46;101313.00;;;9.74
70831;BMP180;58451;51.550;7.208;2023-02-19T09:01:17;101319.80;;;9.72
70831;BMP180;58451;51.550;7.208;2023-02-19T09:02:49;101321.60;;;9.70
70831;BMP180;58451;51.550;7.208;2023-02-19T09:04:21;101329.40;;;9.70
70831;BMP180;58451;51.550;7.208;2023-02-19T09:05:53;101325.60;;;9.60
70831;BMP180;58451;51.550;7.208;2023-02-19T09:07:25;101328.60;;;9.58
70831;BMP180;58451;51.550;7.208;2023-02-19T09:08:57;101334.20;;;9.50
70831;BMP180;58451;51.550;7.208;2023-02-19T09:10:29;101339.20;;;9.48
70831;BMP180;58451;51.550;7.208;2023-02-19T09:12:04;101345.00;;;9.40
70831;BMP180;58451;51.550;7.208;2023-02-19T09:13:36;101339.40;;;9.30
70831;BMP180;58451;51.550;7.208;2023-02-19T09:15:08;101343.00;;;9.30
70831;BMP180;58451;51.550;7.208;2023-02-19T09:16:40;101342.40;;;9.30
70831;BMP180;58451;51.550;7.208;2023-02-19T09:18:12;101348.60;;;9.30
70831;BMP180;58451;51.550;7.208;2023-02-19T09:19:44;101353.60;;;9.30
70831;BMP180;58451;51.550;7.208;2023-02-19T09:21:15;101358.00;;;9.30
70831;BMP180;58451;51.550;7.208;2023-02-19T09:22:47;101354.20;;;9.30
70831;BMP180;58451;51.550;7.208;2023-02-19T09:24:19;101360.00;;;9.28
70831;BMP180;58451;51.550;7.208;2023-02-19T09:25:59;101366.80;;;9.30
70831;BMP180;58451;51.550;7.208;2023-02-19T09:27:31;101363.40;;;9.30
70831;BMP180;58451;51.550;7.208;2023-02-19T09:29:03;101368.40;;;9.30
70831;BMP180;58451;51.550;7.208;2023-02-19T09:30:35;101369.40;;;9.30
70831;BMP180;58451;51.550;7.208;2023-02-19T09:32:07;101370.00;;;9.30
70831;BMP180;58451;51.550;7.208;2023-02-19T09:33:46;101373.00;;;9.30